KPLR/PLR METAR and TAF weather

Enter ICAO airport designator
Station Type Date Time Source
KPLR METAR 2020/07/04 02:15 UTC NOAA

KPLR 040215Z AUTO 00000KT 10SM FEW095 26/26 A2994 RMK A01


Station Type Date Time Source
KPLR Decoded METAR 2020/07/04 02:15 UTC NOAA

Station name not available
Jul 03, 2020 - 10:15 PM EDT / 2020.07.04 0215 UTC
Wind: Calm:0
Visibility: 10 mile(s):0
Sky conditions: mostly clear
Temperature: 78 F (26 C)
Dew Point: 78 F (26 C)
Relative Humidity: 100%
Pressure (altimeter): 29.94 in. Hg (1013 hPa)
ob: KPLR 040215Z AUTO 00000KT 10SM FEW095 26/26 A2994 RMK A01
cycle: 2

Station Type Date Time Source
KPLR TAF UTC NOAA

Error!

Example: see airport list